This is the latest recevied weather packets stored in our database for station/object SP2FH-13. If no packets are shown the sender has not sent any weather packets the latest 1 day(s).
| Time | Temp. | Humidity | Pressure | Rain* | Wind** | Luminosity | Snow |
|---|---|---|---|---|---|---|---|
| 1778107993 | 9.44° C | 92% | 997.4 hPa | 1.78 mm | - | - | - |
| 1778107091 | 10° C | 91% | 997.1 hPa | 2.03 mm | - | - | - |
| 1778105585 | 11.11° C | 85% | 997.1 hPa | - | - | - | - |
| 1778104681 | 11.11° C | 84% | 996.6 hPa | - | - | - | - |
| 1778103476 | 11.67° C | 84% | 996 hPa | - | - | - | - |
| 1778102874 | 12.78° C | 83% | 995.9 hPa | - | - | - | - |
| 1778101971 | 12.78° C | 83% | 995.8 hPa | - | - | - | - |
| 1778101368 | 13.33° C | 83% | 995.7 hPa | - | - | - | - |
| 1778099560 | 14.44° C | 79% | 995.8 hPa | - | - | - | - |
| 1778099259 | 14.44° C | 78% | 995.8 hPa | - | - | - | - |
| 1778098958 | 15° C | 77% | 995.8 hPa | - | - | - | - |
| 1778098355 | 15° C | 75% | 995.6 hPa | - | - | - | - |
| 1778098054 | 15.56° C | 74% | 995.6 hPa | - | - | - | - |
| 1778097151 | 15.56° C | 74% | 995.7 hPa | - | - | - | - |
| 1778096847 | 15° C | 75% | 995.6 hPa | - | - | - | - |
| 1778095341 | 16.11° C | 71% | 995.5 hPa | - | - | - | - |
| 1778094739 | 16.67° C | 69% | 995.3 hPa | - | - | - | - |
| 1778094136 | 17.22° C | 69% | 995.2 hPa | - | - | - | - |
| 1778093835 | 17.22° C | 70% | 995.2 hPa | - | - | - | - |
| 1778092630 | 16.67° C | 72% | 994.9 hPa | - | - | - | - |
| 1778091426 | 17.22° C | 69% | 994.7 hPa | - | - | 3 W/m² | - |
| 1778090221 | 19.44° C | 59% | 994.5 hPa | - | - | 16 W/m² | - |
| 1778089619 | 19.44° C | 60% | 994.6 hPa | - | - | 6 W/m² | - |
| 1778088712 | 18.89° C | 61% | 994.4 hPa | - | - | 15 W/m² | - |
| 1778088411 | 18.89° C | 60% | 994.4 hPa | - | - | 18 W/m² | - |
* Rain latest hour (hover to see other rain measurements)
** Current wind speed in m/s (hover to see current wind gust speed)